Parkside, New York
Current Conditions -  °F | °C
As of 11:51 AM on Thursday 30 Oct 2014 (Local Time) from KLGA Reporting Station
Scattered Clouds Scattered Clouds  
Wind Chill: 56°   Ceiling: Unl
Heat Index: 56°   Visibility: 10mi
Dew Point: 38°   Wind: 9mph
Humidity: 51%   Direction: 350°N
Pressure: 29.99"   Gusts: NA
Location:  40.7228°N, 73.845°W
Report Text: KLGA 301551Z 35008KT 10SM FEW040 SCT070 SCT250 13/03 A2999 RMK AO2 SLP154 T01330033
Loading
Personal Weather Stations






























Interactive Weather Map
Tropical Storm Tracking
New forecast layout! Learn more

10-Day Weather Forecast

Advertisements
Track Severe Weather on mobile